Hopedale, OH

09:00 PM EDT die 27o August, anno 2014 (GMT -0400)
Washington County | Change Station
CLOSE
Current Station
Airport
Location: Washington,
Elevation: 1184 ft
Nearby Weather Stations

Elev 1184 ft 40.14 °N, 80.29 °W | Updated 5 minutes ago

Overcast
Aequaliter Nubila
72 °F
Feels Like 72 °F
N
0
Ventus Variabilis Ventus from Aquilo

Hodie
High -- | Low -- °F
--% Chance of Precip.
Yesterday
High -- | Low -- °F
Precip. -- in
6:46 AM 8:03 PM
Waxing Crescent, 5% visible
Pressio 30.05 in
Visibilitas 10.0 milia passuum
Clouds Few 1800 ft
Plerumque Nubila 2500 ft
Aequaliter Nubila 5000 ft
Frigus in quo Ros apparet 70 °F
Umor 94%
Rainfall 0.37 in
Snow Depth Not available.
UV 0 out of 12
Pollen 10.40 out of 12
Air Quality Not available.
Flu Activity Not available.
METAR KAFJ 280055Z AUTO 00000KT 10SM FEW018 BKN025 OVC050 22/21 A3005 RMK AO1 P0019

More Conditions Fewer Conditions

Pressio 30.05 in
Visibilitas 10.0 milia passuum
Clouds Few 1800 ft
Plerumque Nubila 2500 ft
Aequaliter Nubila 5000 ft
Frigus in quo Ros apparet 70 °F
Umor 94%
Rainfall 0.37 in
Snow Depth Not available.
UV 0 out of 12
Pollen 10.40 out of 12
Air Quality Not available.
Flu Activity Not available.
METAR KAFJ 280055Z AUTO 00000KT 10SM FEW018 BKN025 OVC050 22/21 A3005 RMK AO1 P0019

More Conditions Fewer Conditions

10-Day Weather Forecast

Almanac

Astronomy

Aug. 27, 2014 Rise Set
Actual Time 6:46 AM EDT 8:03 PM EDT
Civil Twilight 6:17 AM EDT 8:31 PM EDT
Nautical Twilight 5:44 AM EDT 9:05 PM EDT
Astronomical Twilight 5:08 AM EDT 9:40 PM EDT
Moon 8:41 AM EDT (8/27) 8:54 PM EDT (8/27)
Length Of Visible Light 14h 13m
Length of Day
13h 17m
Tomorrow will be 2m 31s shorter.
Waxing Crescent, 5% of the Moon is Illuminated
Hodie
Waxing Crescent
Sep 2
First Quarter
Sep 8
Full
Sep 15
Last Quarter
Sep 24
New

Today's Extremes

State Highs State Lows

Community

WunderPhotos

Upload Photos

1,747,843 photos uploaded!

Nearby

Snow Depth

Station Depth Elevation
No new snow has been reported.

Earthquake Activity

City Distance Mag. Time & Date
No recent earthquake activity has been reported nearby.
Minimum magnitude displayed is 2.5.

Coastal Water Temperatures

Locus Calor
No Stations Reporting

Nearby Weather Stations